ΕΜΥ, Εθνική Μετεωρολογική Υπηρεσία - Δελτία Καιρού, Προγνώσεις

ΑΕΡΟΝΑΥΤΙΛΙΑ

GREEK AIRPORTS CODES

LGMG 291500Z 30012G25KT 9999 FEW025 27/12 Q1011=

EUROPEAN AIRPORTS CODES

LFPO 292030Z 19003KT 9999 SCT046 BKN130 BKN230 16/15 Q1018NOSIG=